Overview Statistics Trail Chart Weather Telemetry Raw packets
 

This is the latest recevied weather packets stored in our database for station/object R2AKT-13. If no packets are shown the sender has not sent any weather packets the latest 10 day(s).

<< 1 2 3 4 5 >>
Time Temp. Humidity Pressure Rain* Wind** Luminosity Snow
1788706601 14.44° C 76% 980.6 hPa - 0 m/s - -
1788706072 15.56° C 72% 980.5 hPa - 0 m/s - -
1788705491 16.11° C 71% 980.6 hPa - 0 m/s - -
1788705001 16.67° C 68% 980.4 hPa - 0 m/s - -
1788704406 15.56° C 73% 980.2 hPa - 0 m/s - -
1788703816 14.44° C 78% 980.1 hPa - 0 m/s - -
1788703301 13.89° C 79% 980.1 hPa - 0.45 m/s, 255° - -
1788702741 13.33° C 83% 980.1 hPa - 0.45 m/s, 106° - -
1788702176 13.89° C 81% 980 hPa - 0.45 m/s, 227° - -
1788701606 13.33° C 81% 979.9 hPa - 0.45 m/s, 273° - -
1788701120 12.22° C 86% 979.8 hPa - 0.45 m/s, 183° - -
1788700501 11.67° C 87% 979.9 hPa - 1.79 m/s, 215° - -
1788699976 13.33° C 81% 979.8 hPa - 0 m/s - -
1788699441 13.33° C 80% 979.7 hPa - 0.45 m/s, 46° - -
1788698951 13.89° C 80% 979.7 hPa - 0 m/s - -
1788698421 14.44° C 78% 979.6 hPa - 0 m/s - -
1788697926 15° C 77% 979.6 hPa - 0 m/s - -
1788697371 14.44° C 78% 979.5 hPa - 0 m/s - -
1788696831 13.89° C 77% 979.5 hPa - 0 m/s - -
1788696261 13.89° C 80% 979.5 hPa - 0.45 m/s, 256° - -
1788695691 13.89° C 80% 979.4 hPa - 0 m/s - -
1788695146 13.89° C 80% 979.4 hPa - 0.89 m/s, 249° - -
1788694626 13.89° C 82% 979.3 hPa - 0.45 m/s, 214° - -
1788694026 13.33° C 83% 979.3 hPa - 0.89 m/s, 195° - -
1788693536 13.33° C 82% 979.2 hPa - 0.45 m/s, 260° - -

* Rain since midnight (hover to see other rain measurements)
** Current wind speed in m/s (hover to see current wind gust speed)